sensor_id;sensor_type;location;lat;lon;timestamp;temperature;humidity
17948;DHT22;9099;47.958;11.366;2023-10-31T00:01:32;11.10;99.90
17948;DHT22;9099;47.958;11.366;2023-10-31T00:03:59;11.00;99.90
17948;DHT22;9099;47.958;11.366;2023-10-31T00:06:27;11.00;99.90
17948;DHT22;9099;47.958;11.366;2023-10-31T00:08:54;11.00;99.90
17948;DHT22;9099;47.958;11.366;2023-10-31T00:11:21;11.00;99.90
17948;DHT22;9099;47.958;11.366;2023-10-31T00:13:48;10.90;99.90
17948;DHT22;9099;47.958;11.366;2023-10-31T00:16:15;10.90;99.90
17948;DHT22;9099;47.958;11.366;2023-10-31T00:18:42;10.90;99.90
17948;DHT22;9099;47.958;11.366;2023-10-31T00:21:09;10.90;99.90
17948;DHT22;9099;47.958;11.366;2023-10-31T00:23:44;11.00;99.90
17948;DHT22;9099;47.958;11.366;2023-10-31T00:26:11;10.90;99.90
17948;DHT22;9099;47.958;11.366;2023-10-31T00:28:38;10.90;99.90
17948;DHT22;9099;47.958;11.366;2023-10-31T00:31:05;10.90;99.90
17948;DHT22;9099;47.958;11.366;2023-10-31T00:33:32;10.80;99.90
17948;DHT22;9099;47.958;11.366;2023-10-31T00:35:59;10.80;99.90
17948;DHT22;9099;47.958;11.366;2023-10-31T00:38:26;10.80;99.90
17948;DHT22;9099;47.958;11.366;2023-10-31T00:40:54;10.80;99.90
17948;DHT22;9099;47.958;11.366;2023-10-31T00:43:21;10.80;99.90
17948;DHT22;9099;47.958;11.366;2023-10-31T00:45:48;10.80;99.90
17948;DHT22;9099;47.958;11.366;2023-10-31T00:48:15;10.80;99.90
17948;DHT22;9099;47.958;11.366;2023-10-31T00:50:42;10.80;99.90
17948;DHT22;9099;47.958;11.366;2023-10-31T00:53:09;10.80;99.90
17948;DHT22;9099;47.958;11.366;2023-10-31T00:55:36;10.70;99.90
17948;DHT22;9099;47.958;11.366;2023-10-31T00:58:05;10.70;99.90
17948;DHT22;9099;47.958;11.366;2023-10-31T01:00:32;10.60;99.90
17948;DHT22;9099;47.958;11.366;2023-10-31T01:02:59;10.60;99.90
17948;DHT22;9099;47.958;11.366;2023-10-31T01:05:26;10.60;99.90
17948;DHT22;9099;47.958;11.366;2023-10-31T01:07:53;10.70;99.90
17948;DHT22;9099;47.958;11.366;2023-10-31T01:10:20;10.70;99.90
17948;DHT22;9099;47.958;11.366;2023-10-31T01:12:48;10.60;99.90
17948;DHT22;9099;47.958;11.366;2023-10-31T01:15:16;10.60;99.90
17948;DHT22;9099;47.958;11.366;2023-10-31T01:17:43;10.50;99.90
17948;DHT22;9099;47.958;11.366;2023-10-31T01:20:10;10.50;99.90
17948;DHT22;9099;47.958;11.366;2023-10-31T01:22:37;10.50;99.90
17948;DHT22;9099;47.958;11.366;2023-10-31T01:25:05;10.50;99.90
17948;DHT22;9099;47.958;11.366;2023-10-31T01:27:32;10.50;99.90
17948;DHT22;9099;47.958;11.366;2023-10-31T01:29:58;10.50;99.90
17948;DHT22;9099;47.958;11.366;2023-10-31T01:32:27;10.50;99.90
17948;DHT22;9099;47.958;11.366;2023-10-31T01:34:53;10.50;99.90
17948;DHT22;9099;47.958;11.366;2023-10-31T01:37:20;10.50;99.90
17948;DHT22;9099;47.958;11.366;2023-10-31T01:39:47;10.40;99.90
17948;DHT22;9099;47.958;11.366;2023-10-31T01:42:14;10.40;99.90
17948;DHT22;9099;47.958;11.366;2023-10-31T01:44:41;10.40;99.90
17948;DHT22;9099;47.958;11.366;2023-10-31T01:47:08;10.40;99.90
17948;DHT22;9099;47.958;11.366;2023-10-31T01:49:37;10.40;99.90
17948;DHT22;9099;47.958;11.366;2023-10-31T01:52:05;10.40;99.90
17948;DHT22;9099;47.958;11.366;2023-10-31T01:54:33;10.30;99.90
17948;DHT22;9099;47.958;11.366;2023-10-31T01:57:00;10.30;99.90
17948;DHT22;9099;47.958;11.366;2023-10-31T01:59:28;10.30;99.90
17948;DHT22;9099;47.958;11.366;2023-10-31T02:01:55;10.20;99.90
17948;DHT22;9099;47.958;11.366;2023-10-31T02:04:23;10.20;99.90
17948;DHT22;9099;47.958;11.366;2023-10-31T02:06:51;10.20;99.90
17948;DHT22;9099;47.958;11.366;2023-10-31T02:09:18;10.20;99.90
17948;DHT22;9099;47.958;11.366;2023-10-31T02:11:45;10.20;99.90
17948;DHT22;9099;47.958;11.366;2023-10-31T02:14:11;10.30;99.90
17948;DHT22;9099;47.958;11.366;2023-10-31T02:16:38;10.20;99.90
17948;DHT22;9099;47.958;11.366;2023-10-31T02:19:06;10.20;99.90
17948;DHT22;9099;47.958;11.366;2023-10-31T02:21:33;10.20;99.90
17948;DHT22;9099;47.958;11.366;2023-10-31T02:24:03;10.20;99.90
17948;DHT22;9099;47.958;11.366;2023-10-31T02:26:30;10.20;99.90
17948;DHT22;9099;47.958;11.366;2023-10-31T02:28:57;10.20;99.90
17948;DHT22;9099;47.958;11.366;2023-10-31T02:31:24;10.20;99.90
17948;DHT22;9099;47.958;11.366;2023-10-31T02:33:51;10.30;99.90
17948;DHT22;9099;47.958;11.366;2023-10-31T02:36:18;10.30;99.90
17948;DHT22;9099;47.958;11.366;2023-10-31T02:38:44;10.30;99.90
17948;DHT22;9099;47.958;11.366;2023-10-31T02:41:13;10.40;99.90
17948;DHT22;9099;47.958;11.366;2023-10-31T02:43:41;10.50;99.90
17948;DHT22;9099;47.958;11.366;2023-10-31T02:46:08;10.50;99.90
17948;DHT22;9099;47.958;11.366;2023-10-31T02:48:37;10.40;99.90
17948;DHT22;9099;47.958;11.366;2023-10-31T02:51:05;10.50;99.90
17948;DHT22;9099;47.958;11.366;2023-10-31T02:53:32;10.40;99.90
17948;DHT22;9099;47.958;11.366;2023-10-31T02:55:59;10.40;99.90
17948;DHT22;9099;47.958;11.366;2023-10-31T02:58:27;10.40;99.90
17948;DHT22;9099;47.958;11.366;2023-10-31T03:00:54;10.50;99.90
17948;DHT22;9099;47.958;11.366;2023-10-31T03:03:21;10.50;99.90
17948;DHT22;9099;47.958;11.366;2023-10-31T03:05:48;10.40;99.90
17948;DHT22;9099;47.958;11.366;2023-10-31T03:08:15;10.40;99.90
17948;DHT22;9099;47.958;11.366;2023-10-31T03:10:47;10.30;99.90
17948;DHT22;9099;47.958;11.366;2023-10-31T03:13:15;10.20;99.90
17948;DHT22;9099;47.958;11.366;2023-10-31T03:15:43;10.20;99.90
17948;DHT22;9099;47.958;11.366;2023-10-31T03:18:10;10.20;99.90
17948;DHT22;9099;47.958;11.366;2023-10-31T03:20:37;10.20;99.90
17948;DHT22;9099;47.958;11.366;2023-10-31T03:23:04;10.30;99.90
17948;DHT22;9099;47.958;11.366;2023-10-31T03:25:30;10.20;99.90
17948;DHT22;9099;47.958;11.366;2023-10-31T03:27:57;10.20;99.90
17948;DHT22;9099;47.958;11.366;2023-10-31T03:30:25;10.20;99.90
17948;DHT22;9099;47.958;11.366;2023-10-31T03:32:53;10.20;99.90
17948;DHT22;9099;47.958;11.366;2023-10-31T03:35:20;10.20;99.90
17948;DHT22;9099;47.958;11.366;2023-10-31T03:37:46;10.20;99.90
17948;DHT22;9099;47.958;11.366;2023-10-31T03:40:13;10.20;99.90
17948;DHT22;9099;47.958;11.366;2023-10-31T03:42:40;10.20;99.90
17948;DHT22;9099;47.958;11.366;2023-10-31T03:45:08;10.20;99.90
17948;DHT22;9099;47.958;11.366;2023-10-31T03:47:35;10.20;99.90
17948;DHT22;9099;47.958;11.366;2023-10-31T03:50:04;10.10;99.90
17948;DHT22;9099;47.958;11.366;2023-10-31T03:52:30;10.10;99.90
17948;DHT22;9099;47.958;11.366;2023-10-31T03:54:57;10.10;99.90
17948;DHT22;9099;47.958;11.366;2023-10-31T03:57:24;10.10;99.90
17948;DHT22;9099;47.958;11.366;2023-10-31T03:59:51;10.10;99.90
17948;DHT22;9099;47.958;11.366;2023-10-31T04:02:18;10.10;99.90
17948;DHT22;9099;47.958;11.366;2023-10-31T04:04:45;10.00;99.90
17948;DHT22;9099;47.958;11.366;2023-10-31T04:07:13;10.00;99.90
17948;DHT22;9099;47.958;11.366;2023-10-31T04:09:40;10.00;99.90
17948;DHT22;9099;47.958;11.366;2023-10-31T04:12:07;10.00;99.90
17948;DHT22;9099;47.958;11.366;2023-10-31T04:14:34;10.00;99.90
17948;DHT22;9099;47.958;11.366;2023-10-31T04:17:02;10.00;99.90
17948;DHT22;9099;47.958;11.366;2023-10-31T04:19:28;10.00;99.90
17948;DHT22;9099;47.958;11.366;2023-10-31T04:21:55;10.00;99.90
17948;DHT22;9099;47.958;11.366;2023-10-31T04:24:23;10.00;99.90
17948;DHT22;9099;47.958;11.366;2023-10-31T04:26:50;10.00;99.90
17948;DHT22;9099;47.958;11.366;2023-10-31T04:29:17;10.00;99.90
17948;DHT22;9099;47.958;11.366;2023-10-31T04:31:44;10.10;99.90
17948;DHT22;9099;47.958;11.366;2023-10-31T04:34:11;10.10;99.90
17948;DHT22;9099;47.958;11.366;2023-10-31T04:36:38;10.00;99.90
17948;DHT22;9099;47.958;11.366;2023-10-31T04:39:05;10.00;99.90
17948;DHT22;9099;47.958;11.366;2023-10-31T04:41:33;10.10;99.90
17948;DHT22;9099;47.958;11.366;2023-10-31T04:44:00;10.00;99.90
17948;DHT22;9099;47.958;11.366;2023-10-31T04:46:28;10.10;99.90
17948;DHT22;9099;47.958;11.366;2023-10-31T04:48:55;10.10;99.90
17948;DHT22;9099;47.958;11.366;2023-10-31T04:51:22;10.00;99.90
17948;DHT22;9099;47.958;11.366;2023-10-31T04:53:48;10.00;99.90
17948;DHT22;9099;47.958;11.366;2023-10-31T04:56:16;10.00;99.90
17948;DHT22;9099;47.958;11.366;2023-10-31T04:58:44;10.00;99.90
17948;DHT22;9099;47.958;11.366;2023-10-31T05:01:13;10.00;99.90
17948;DHT22;9099;47.958;11.366;2023-10-31T05:03:40;10.00;99.90
17948;DHT22;9099;47.958;11.366;2023-10-31T05:06:07;10.00;99.90
17948;DHT22;9099;47.958;11.366;2023-10-31T05:08:34;10.00;99.90
17948;DHT22;9099;47.958;11.366;2023-10-31T05:11:00;9.90;99.90
17948;DHT22;9099;47.958;11.366;2023-10-31T05:13:27;9.90;99.90
17948;DHT22;9099;47.958;11.366;2023-10-31T05:15:56;9.90;99.90
17948;DHT22;9099;47.958;11.366;2023-10-31T05:18:22;9.90;99.90
17948;DHT22;9099;47.958;11.366;2023-10-31T05:20:49;9.90;99.90
17948;DHT22;9099;47.958;11.366;2023-10-31T05:23:16;9.90;99.90
17948;DHT22;9099;47.958;11.366;2023-10-31T05:25:43;9.90;99.90
17948;DHT22;9099;47.958;11.366;2023-10-31T05:28:10;10.00;99.90
17948;DHT22;9099;47.958;11.366;2023-10-31T05:30:36;10.00;99.90
17948;DHT22;9099;47.958;11.366;2023-10-31T05:33:05;10.00;99.90
17948;DHT22;9099;47.958;11.366;2023-10-31T05:35:33;10.00;99.90
17948;DHT22;9099;47.958;11.366;2023-10-31T05:37:59;10.00;99.90
17948;DHT22;9099;47.958;11.366;2023-10-31T05:40:26;10.00;99.90
17948;DHT22;9099;47.958;11.366;2023-10-31T05:42:54;10.00;99.90
17948;DHT22;9099;47.958;11.366;2023-10-31T05:45:22;10.00;99.90
17948;DHT22;9099;47.958;11.366;2023-10-31T05:47:49;10.00;99.90
17948;DHT22;9099;47.958;11.366;2023-10-31T05:50:17;10.00;99.90
17948;DHT22;9099;47.958;11.366;2023-10-31T05:52:44;10.00;99.90
17948;DHT22;9099;47.958;11.366;2023-10-31T05:55:11;10.10;99.90
17948;DHT22;9099;47.958;11.366;2023-10-31T05:57:38;10.10;99.90
17948;DHT22;9099;47.958;11.366;2023-10-31T06:00:06;10.10;99.90
17948;DHT22;9099;47.958;11.366;2023-10-31T06:02:33;10.10;99.90
17948;DHT22;9099;47.958;11.366;2023-10-31T06:05:00;10.20;99.90
17948;DHT22;9099;47.958;11.366;2023-10-31T06:07:27;10.20;99.90
17948;DHT22;9099;47.958;11.366;2023-10-31T06:09:54;10.10;99.90
17948;DHT22;9099;47.958;11.366;2023-10-31T06:12:21;10.10;99.90
17948;DHT22;9099;47.958;11.366;2023-10-31T06:14:48;10.10;99.90
17948;DHT22;9099;47.958;11.366;2023-10-31T06:17:15;10.10;99.90
17948;DHT22;9099;47.958;11.366;2023-10-31T06:19:41;10.00;99.90
17948;DHT22;9099;47.958;11.366;2023-10-31T06:22:11;10.00;99.90
17948;DHT22;9099;47.958;11.366;2023-10-31T06:24:39;10.00;99.90
17948;DHT22;9099;47.958;11.366;2023-10-31T06:27:06;10.10;99.90
17948;DHT22;9099;47.958;11.366;2023-10-31T06:29:33;10.10;99.90
17948;DHT22;9099;47.958;11.366;2023-10-31T06:32:00;10.10;99.90
17948;DHT22;9099;47.958;11.366;2023-10-31T06:34:27;10.10;99.90
17948;DHT22;9099;47.958;11.366;2023-10-31T06:36:54;10.10;99.90
17948;DHT22;9099;47.958;11.366;2023-10-31T06:39:21;10.00;99.90
17948;DHT22;9099;47.958;11.366;2023-10-31T06:41:54;10.00;99.90
17948;DHT22;9099;47.958;11.366;2023-10-31T06:44:21;10.00;99.90
17948;DHT22;9099;47.958;11.366;2023-10-31T06:46:48;9.90;99.90
17948;DHT22;9099;47.958;11.366;2023-10-31T06:49:15;10.00;99.90
17948;DHT22;9099;47.958;11.366;2023-10-31T06:51:42;10.00;99.90
17948;DHT22;9099;47.958;11.366;2023-10-31T06:54:09;10.00;99.90
17948;DHT22;9099;47.958;11.366;2023-10-31T06:56:36;10.00;99.90
17948;DHT22;9099;47.958;11.366;2023-10-31T06:59:04;10.00;99.90
17948;DHT22;9099;47.958;11.366;2023-10-31T07:01:31;10.00;99.90
17948;DHT22;9099;47.958;11.366;2023-10-31T07:03:58;10.00;99.90
17948;DHT22;9099;47.958;11.366;2023-10-31T07:06:25;10.00;99.90
17948;DHT22;9099;47.958;11.366;2023-10-31T07:08:52;10.00;99.90
17948;DHT22;9099;47.958;11.366;2023-10-31T07:11:19;10.00;99.90
17948;DHT22;9099;47.958;11.366;2023-10-31T07:13:45;10.00;99.90
17948;DHT22;9099;47.958;11.366;2023-10-31T07:16:14;10.00;99.90
17948;DHT22;9099;47.958;11.366;2023-10-31T07:18:40;10.00;99.90
17948;DHT22;9099;47.958;11.366;2023-10-31T07:21:07;10.00;99.90
17948;DHT22;9099;47.958;11.366;2023-10-31T07:23:34;10.00;99.90
17948;DHT22;9099;47.958;11.366;2023-10-31T07:26:01;10.00;99.90
17948;DHT22;9099;47.958;11.366;2023-10-31T07:28:28;10.00;99.90
17948;DHT22;9099;47.958;11.366;2023-10-31T07:30:55;10.10;99.90
17948;DHT22;9099;47.958;11.366;2023-10-31T07:33:23;10.10;99.90
17948;DHT22;9099;47.958;11.366;2023-10-31T07:35:50;10.10;99.90
17948;DHT22;9099;47.958;11.366;2023-10-31T07:38:17;10.10;99.90
17948;DHT22;9099;47.958;11.366;2023-10-31T07:40:44;10.10;99.90
17948;DHT22;9099;47.958;11.366;2023-10-31T07:43:10;10.10;99.90
17948;DHT22;9099;47.958;11.366;2023-10-31T07:45:38;10.10;99.90
17948;DHT22;9099;47.958;11.366;2023-10-31T07:48:05;10.10;99.90
17948;DHT22;9099;47.958;11.366;2023-10-31T07:50:33;10.10;99.90
17948;DHT22;9099;47.958;11.366;2023-10-31T07:53:00;10.00;99.90
17948;DHT22;9099;47.958;11.366;2023-10-31T07:55:27;10.00;99.90
17948;DHT22;9099;47.958;11.366;2023-10-31T07:57:53;10.00;99.90
17948;DHT22;9099;47.958;11.366;2023-10-31T08:00:20;10.00;99.90
17948;DHT22;9099;47.958;11.366;2023-10-31T08:02:47;10.00;99.90
17948;DHT22;9099;47.958;11.366;2023-10-31T08:05:14;10.00;99.90
17948;DHT22;9099;47.958;11.366;2023-10-31T08:07:42;10.00;99.90
17948;DHT22;9099;47.958;11.366;2023-10-31T08:10:10;10.00;99.90
17948;DHT22;9099;47.958;11.366;2023-10-31T08:12:37;10.10;99.90
17948;DHT22;9099;47.958;11.366;2023-10-31T08:15:04;10.10;99.90
17948;DHT22;9099;47.958;11.366;2023-10-31T08:17:31;10.10;99.90
17948;DHT22;9099;47.958;11.366;2023-10-31T08:19:58;10.10;99.90
17948;DHT22;9099;47.958;11.366;2023-10-31T08:22:25;10.20;99.90
17948;DHT22;9099;47.958;11.366;2023-10-31T08:24:53;10.20;99.90
17948;DHT22;9099;47.958;11.366;2023-10-31T08:27:20;10.30;99.90
17948;DHT22;9099;47.958;11.366;2023-10-31T08:29:47;10.30;99.90
17948;DHT22;9099;47.958;11.366;2023-10-31T08:32:14;10.30;99.90
17948;DHT22;9099;47.958;11.366;2023-10-31T08:34:41;10.30;99.90
17948;DHT22;9099;47.958;11.366;2023-10-31T08:37:08;10.40;99.90
17948;DHT22;9099;47.958;11.366;2023-10-31T08:39:35;10.40;99.90
17948;DHT22;9099;47.958;11.366;2023-10-31T08:42:04;10.50;99.90
17948;DHT22;9099;47.958;11.366;2023-10-31T08:44:31;10.50;99.90
17948;DHT22;9099;47.958;11.366;2023-10-31T08:46:59;10.40;99.90
17948;DHT22;9099;47.958;11.366;2023-10-31T08:49:26;10.50;99.90
17948;DHT22;9099;47.958;11.366;2023-10-31T08:51:53;10.40;99.90
17948;DHT22;9099;47.958;11.366;2023-10-31T08:54:20;10.40;99.90
17948;DHT22;9099;47.958;11.366;2023-10-31T08:56:46;10.50;99.90
17948;DHT22;9099;47.958;11.366;2023-10-31T08:59:15;10.60;99.90
17948;DHT22;9099;47.958;11.366;2023-10-31T09:01:42;10.60;99.90
17948;DHT22;9099;47.958;11.366;2023-10-31T09:04:08;10.60;99.90
17948;DHT22;9099;47.958;11.366;2023-10-31T09:06:36;10.60;99.90
17948;DHT22;9099;47.958;11.366;2023-10-31T09:09:03;10.60;99.90
17948;DHT22;9099;47.958;11.366;2023-10-31T09:11:30;10.70;99.90
17948;DHT22;9099;47.958;11.366;2023-10-31T09:13:57;10.70;99.90
17948;DHT22;9099;47.958;11.366;2023-10-31T09:16:25;10.70;99.90
17948;DHT22;9099;47.958;11.366;2023-10-31T09:18:52;10.80;99.90
17948;DHT22;9099;47.958;11.366;2023-10-31T09:21:19;10.80;99.90
17948;DHT22;9099;47.958;11.366;2023-10-31T09:23:46;10.70;99.90
17948;DHT22;9099;47.958;11.366;2023-10-31T09:26:12;10.70;99.90
17948;DHT22;9099;47.958;11.366;2023-10-31T09:28:39;10.70;99.90
17948;DHT22;9099;47.958;11.366;2023-10-31T09:31:15;10.70;99.90
17948;DHT22;9099;47.958;11.366;2023-10-31T09:33:43;10.70;99.90
17948;DHT22;9099;47.958;11.366;2023-10-31T09:36:10;10.70;99.90
17948;DHT22;9099;47.958;11.366;2023-10-31T09:38:38;10.70;99.90
17948;DHT22;9099;47.958;11.366;2023-10-31T09:41:05;10.70;99.90
17948;DHT22;9099;47.958;11.366;2023-10-31T09:43:32;10.80;99.90
17948;DHT22;9099;47.958;11.366;2023-10-31T09:45:59;10.80;99.90
17948;DHT22;9099;47.958;11.366;2023-10-31T09:48:27;10.80;99.90
17948;DHT22;9099;47.958;11.366;2023-10-31T09:50:55;10.90;99.90
17948;DHT22;9099;47.958;11.366;2023-10-31T09:53:24;10.90;99.90
17948;DHT22;9099;47.958;11.366;2023-10-31T09:55:51;10.90;99.90
17948;DHT22;9099;47.958;11.366;2023-10-31T09:58:19;10.80;99.90
17948;DHT22;9099;47.958;11.366;2023-10-31T10:00:46;10.90;99.90
17948;DHT22;9099;47.958;11.366;2023-10-31T10:03:13;10.90;99.90
17948;DHT22;9099;47.958;11.366;2023-10-31T10:05:41;10.90;99.90
17948;DHT22;9099;47.958;11.366;2023-10-31T10:08:11;11.00;99.90
17948;DHT22;9099;47.958;11.366;2023-10-31T10:10:38;11.10;99.90
17948;DHT22;9099;47.958;11.366;2023-10-31T10:13:05;11.10;99.90
17948;DHT22;9099;47.958;11.366;2023-10-31T10:15:43;11.10;99.90
17948;DHT22;9099;47.958;11.366;2023-10-31T10:18:10;11.20;99.90
17948;DHT22;9099;47.958;11.366;2023-10-31T10:20:53;11.30;99.90
17948;DHT22;9099;47.958;11.366;2023-10-31T10:23:22;11.30;99.90
17948;DHT22;9099;47.958;11.366;2023-10-31T10:25:49;11.30;99.90
17948;DHT22;9099;47.958;11.366;2023-10-31T10:28:16;11.40;99.90
17948;DHT22;9099;47.958;11.366;2023-10-31T10:30:45;11.30;99.90
17948;DHT22;9099;47.958;11.366;2023-10-31T10:33:12;11.40;99.90
17948;DHT22;9099;47.958;11.366;2023-10-31T10:35:39;11.40;99.90
17948;DHT22;9099;47.958;11.366;2023-10-31T10:38:09;11.40;99.90
17948;DHT22;9099;47.958;11.366;2023-10-31T10:40:39;11.50;99.90
17948;DHT22;9099;47.958;11.366;2023-10-31T10:43:11;11.60;99.90
17948;DHT22;9099;47.958;11.366;2023-10-31T10:45:42;11.60;99.90
17948;DHT22;9099;47.958;11.366;2023-10-31T10:48:11;11.70;99.90
17948;DHT22;9099;47.958;11.366;2023-10-31T10:50:42;11.70;99.90
17948;DHT22;9099;47.958;11.366;2023-10-31T10:53:14;11.70;99.90
17948;DHT22;9099;47.958;11.366;2023-10-31T10:55:46;11.80;99.90
17948;DHT22;9099;47.958;11.366;2023-10-31T10:58:22;11.80;99.90
17948;DHT22;9099;47.958;11.366;2023-10-31T11:00:53;11.80;99.90
17948;DHT22;9099;47.958;11.366;2023-10-31T11:03:22;11.90;99.90
17948;DHT22;9099;47.958;11.366;2023-10-31T11:05:50;11.80;99.90
17948;DHT22;9099;47.958;11.366;2023-10-31T11:08:20;11.80;99.90
17948;DHT22;9099;47.958;11.366;2023-10-31T11:10:49;11.90;99.90
17948;DHT22;9099;47.958;11.366;2023-10-31T11:13:16;11.80;99.90
17948;DHT22;9099;47.958;11.366;2023-10-31T11:15:44;11.90;99.90
17948;DHT22;9099;47.958;11.366;2023-10-31T11:18:11;11.90;99.90
17948;DHT22;9099;47.958;11.366;2023-10-31T11:20:39;12.00;99.90
17948;DHT22;9099;47.958;11.366;2023-10-31T11:23:07;12.10;99.90
17948;DHT22;9099;47.958;11.366;2023-10-31T11:25:33;12.20;99.90
17948;DHT22;9099;47.958;11.366;2023-10-31T11:28:14;12.20;99.90
17948;DHT22;9099;47.958;11.366;2023-10-31T11:30:42;12.20;99.90
17948;DHT22;9099;47.958;11.366;2023-10-31T11:33:12;12.20;99.90
17948;DHT22;9099;47.958;11.366;2023-10-31T11:35:40;12.30;99.90
17948;DHT22;9099;47.958;11.366;2023-10-31T11:38:07;12.20;99.90
17948;DHT22;9099;47.958;11.366;2023-10-31T11:40:36;12.20;99.90
17948;DHT22;9099;47.958;11.366;2023-10-31T11:43:05;12.10;99.90
17948;DHT22;9099;47.958;11.366;2023-10-31T11:45:36;12.10;99.90
17948;DHT22;9099;47.958;11.366;2023-10-31T11:48:04;12.10;99.90
17948;DHT22;9099;47.958;11.366;2023-10-31T11:50:31;12.20;99.90
17948;DHT22;9099;47.958;11.366;2023-10-31T11:53:03;12.30;99.90
17948;DHT22;9099;47.958;11.366;2023-10-31T11:55:32;12.40;99.90
17948;DHT22;9099;47.958;11.366;2023-10-31T11:58:15;12.60;99.90
17948;DHT22;9099;47.958;11.366;2023-10-31T12:00:44;12.70;99.90
17948;DHT22;9099;47.958;11.366;2023-10-31T12:03:11;12.70;99.90
17948;DHT22;9099;47.958;11.366;2023-10-31T12:05:38;12.70;99.90
17948;DHT22;9099;47.958;11.366;2023-10-31T12:08:05;12.80;99.90
17948;DHT22;9099;47.958;11.366;2023-10-31T12:10:32;12.80;99.90
17948;DHT22;9099;47.958;11.366;2023-10-31T12:12:59;12.80;99.90
17948;DHT22;9099;47.958;11.366;2023-10-31T12:15:26;12.80;99.90
17948;DHT22;9099;47.958;11.366;2023-10-31T12:17:57;12.70;99.90
17948;DHT22;9099;47.958;11.366;2023-10-31T12:20:24;12.50;99.90
17948;DHT22;9099;47.958;11.366;2023-10-31T12:23:02;12.30;99.90
17948;DHT22;9099;47.958;11.366;2023-10-31T12:25:29;12.20;99.90
17948;DHT22;9099;47.958;11.366;2023-10-31T12:27:58;12.10;99.90
17948;DHT22;9099;47.958;11.366;2023-10-31T12:30:25;11.90;99.90
17948;DHT22;9099;47.958;11.366;2023-10-31T12:32:55;11.80;99.90
17948;DHT22;9099;47.958;11.366;2023-10-31T12:35:24;11.70;99.90
17948;DHT22;9099;47.958;11.366;2023-10-31T12:37:52;11.70;99.90
17948;DHT22;9099;47.958;11.366;2023-10-31T12:40:21;11.70;99.90
17948;DHT22;9099;47.958;11.366;2023-10-31T12:42:49;11.70;99.90
17948;DHT22;9099;47.958;11.366;2023-10-31T12:45:17;11.70;99.90
17948;DHT22;9099;47.958;11.366;2023-10-31T12:47:44;11.70;99.90
17948;DHT22;9099;47.958;11.366;2023-10-31T12:50:14;11.70;99.90
17948;DHT22;9099;47.958;11.366;2023-10-31T12:52:48;11.70;99.90
17948;DHT22;9099;47.958;11.366;2023-10-31T12:55:17;11.70;99.90
17948;DHT22;9099;47.958;11.366;2023-10-31T12:57:45;11.70;99.90
17948;DHT22;9099;47.958;11.366;2023-10-31T13:00:14;11.80;99.90
17948;DHT22;9099;47.958;11.366;2023-10-31T13:02:42;11.80;99.90
17948;DHT22;9099;47.958;11.366;2023-10-31T13:05:10;11.80;99.90
17948;DHT22;9099;47.958;11.366;2023-10-31T13:07:40;11.90;99.90
17948;DHT22;9099;47.958;11.366;2023-10-31T13:10:15;11.90;99.90
17948;DHT22;9099;47.958;11.366;2023-10-31T13:12:44;11.90;99.90
17948;DHT22;9099;47.958;11.366;2023-10-31T13:15:12;11.80;99.90
17948;DHT22;9099;47.958;11.366;2023-10-31T13:17:39;11.80;99.90
17948;DHT22;9099;47.958;11.366;2023-10-31T13:20:09;11.90;99.90
17948;DHT22;9099;47.958;11.366;2023-10-31T13:22:35;12.00;99.90
17948;DHT22;9099;47.958;11.366;2023-10-31T13:25:04;12.00;99.90
17948;DHT22;9099;47.958;11.366;2023-10-31T13:27:33;11.90;99.90
17948;DHT22;9099;47.958;11.366;2023-10-31T13:30:00;11.90;99.90
17948;DHT22;9099;47.958;11.366;2023-10-31T13:32:27;11.90;99.90
17948;DHT22;9099;47.958;11.366;2023-10-31T13:34:54;11.90;99.90
17948;DHT22;9099;47.958;11.366;2023-10-31T13:37:21;12.00;99.90
17948;DHT22;9099;47.958;11.366;2023-10-31T13:39:48;12.00;99.90
17948;DHT22;9099;47.958;11.366;2023-10-31T13:42:16;12.00;99.90
17948;DHT22;9099;47.958;11.366;2023-10-31T13:44:43;12.10;99.90
17948;DHT22;9099;47.958;11.366;2023-10-31T13:47:10;12.00;99.90
17948;DHT22;9099;47.958;11.366;2023-10-31T13:49:37;12.00;99.90
17948;DHT22;9099;47.958;11.366;2023-10-31T13:52:04;12.00;99.90
17948;DHT22;9099;47.958;11.366;2023-10-31T13:54:31;12.00;99.90
17948;DHT22;9099;47.958;11.366;2023-10-31T13:56:58;12.00;99.90
17948;DHT22;9099;47.958;11.366;2023-10-31T13:59:26;12.00;99.90
17948;DHT22;9099;47.958;11.366;2023-10-31T14:01:53;11.90;99.90
17948;DHT22;9099;47.958;11.366;2023-10-31T14:04:20;11.90;99.90
17948;DHT22;9099;47.958;11.366;2023-10-31T14:06:47;11.90;99.90
17948;DHT22;9099;47.958;11.366;2023-10-31T14:09:14;11.80;99.90
17948;DHT22;9099;47.958;11.366;2023-10-31T14:11:41;11.80;99.90
17948;DHT22;9099;47.958;11.366;2023-10-31T14:14:08;11.80;99.90
17948;DHT22;9099;47.958;11.366;2023-10-31T14:16:37;11.80;99.90
17948;DHT22;9099;47.958;11.366;2023-10-31T14:19:05;11.80;99.90
17948;DHT22;9099;47.958;11.366;2023-10-31T14:21:33;11.80;99.90
17948;DHT22;9099;47.958;11.366;2023-10-31T14:24:02;11.70;99.90
17948;DHT22;9099;47.958;11.366;2023-10-31T14:26:29;11.70;99.90
17948;DHT22;9099;47.958;11.366;2023-10-31T14:28:58;11.70;99.90
17948;DHT22;9099;47.958;11.366;2023-10-31T14:31:25;11.70;99.90
17948;DHT22;9099;47.958;11.366;2023-10-31T14:33:53;11.80;99.90
17948;DHT22;9099;47.958;11.366;2023-10-31T14:36:20;11.80;99.90
17948;DHT22;9099;47.958;11.366;2023-10-31T14:38:47;11.90;99.90
17948;DHT22;9099;47.958;11.366;2023-10-31T14:41:14;11.80;99.90
17948;DHT22;9099;47.958;11.366;2023-10-31T14:43:41;11.80;99.90
17948;DHT22;9099;47.958;11.366;2023-10-31T14:46:08;11.80;99.90
17948;DHT22;9099;47.958;11.366;2023-10-31T14:48:34;11.80;99.90
17948;DHT22;9099;47.958;11.366;2023-10-31T14:51:04;11.80;99.90
17948;DHT22;9099;47.958;11.366;2023-10-31T14:53:31;11.80;99.90
17948;DHT22;9099;47.958;11.366;2023-10-31T14:55:58;11.80;99.90
17948;DHT22;9099;47.958;11.366;2023-10-31T14:58:25;11.90;99.90
17948;DHT22;9099;47.958;11.366;2023-10-31T15:00:51;11.90;99.90
17948;DHT22;9099;47.958;11.366;2023-10-31T15:03:18;11.80;99.90
17948;DHT22;9099;47.958;11.366;2023-10-31T15:05:45;11.80;99.90
17948;DHT22;9099;47.958;11.366;2023-10-31T15:08:13;11.80;99.90
17948;DHT22;9099;47.958;11.366;2023-10-31T15:10:40;11.70;99.90
17948;DHT22;9099;47.958;11.366;2023-10-31T15:13:07;11.70;99.90
17948;DHT22;9099;47.958;11.366;2023-10-31T15:15:34;11.70;99.90
17948;DHT22;9099;47.958;11.366;2023-10-31T15:18:01;11.70;99.90
17948;DHT22;9099;47.958;11.366;2023-10-31T15:20:28;11.70;99.90
17948;DHT22;9099;47.958;11.366;2023-10-31T15:22:55;11.70;99.90
17948;DHT22;9099;47.958;11.366;2023-10-31T15:25:23;11.60;99.90
17948;DHT22;9099;47.958;11.366;2023-10-31T15:27:50;11.70;99.90
17948;DHT22;9099;47.958;11.366;2023-10-31T15:30:17;11.70;99.90
17948;DHT22;9099;47.958;11.366;2023-10-31T15:32:44;11.60;99.90